Time;durP1;ratioP1;P1;durP2;ratioP2;P2;SDS_P1;SDS_P2;PMS_P1;PMS_P2;Temp;Humidity;BMP_temperature;BMP_pressure;BME280_temperature;BME280_humidity;BME280_pressure;Samples;Min_cycle;Max_cycle;Signal;HPM_P1;HPM_P2
2021/12/21 00:00:34;;;;;;;9.40;6.10;;;;;;;;;;5094360;28;20249;-89
2021/12/21 00:03:01;;;;;;;12.00;6.83;;;;;;;;;;5094718;28;20822;-89
2021/12/21 00:05:30;;;;;;;12.13;8.47;;;;;;;;;;5094910;28;20200;-90
2021/12/21 00:07:58;;;;;;;12.47;7.40;;;;;;;;;;5093506;28;20271;-89
2021/12/21 00:10:26;;;;;;;20.33;9.83;;;;;;;;;;5089006;28;20266;-89
2021/12/21 00:13:04;;;;;;;10.97;7.13;;;;;;;;;;5094455;28;20286;-89
2021/12/21 00:15:48;;;;;;;22.30;10.00;;;;;;;;;;5093872;28;20212;-89
2021/12/21 00:18:24;;;;;;;20.83;8.60;;;;;;;;;;5094132;28;20200;-89
2021/12/21 00:21:00;;;;;;;21.03;8.23;;;;;;;;;;5092831;28;20585;-89
2021/12/21 00:26:14;;;;;;;24.10;9.67;;;;;;;;;;5093985;28;20185;-89
2021/12/21 00:28:51;;;;;;;23.47;10.73;;;;;;;;;;5093837;28;20274;-89
2021/12/21 00:31:19;;;;;;;21.53;9.53;;;;;;;;;;5080659;28;20232;-89
2021/12/21 00:33:47;;;;;;;12.20;7.30;;;;;;;;;;5094262;28;20649;-90
2021/12/21 00:36:16;;;;;;;18.30;9.40;;;;;;;;;;5094180;28;20250;-89
2021/12/21 00:38:44;;;;;;;28.27;12.90;;;;;;;;;;5091498;28;20200;-89
2021/12/21 00:41:11;;;;;;;19.00;9.20;;;;;;;;;;5093621;28;20236;-89
2021/12/21 00:43:38;;;;;;;22.43;9.43;;;;;;;;;;5093867;28;20200;-89
2021/12/21 00:46:06;;;;;;;14.70;7.83;;;;;;;;;;5090503;28;20217;-89
2021/12/21 00:48:34;;;;;;;12.97;8.17;;;;;;;;;;5088128;28;20614;-89
2021/12/21 00:51:03;;;;;;;12.27;6.80;;;;;;;;;;5093354;28;20204;-89
2021/12/21 00:53:34;;;;;;;11.77;6.40;;;;;;;;;;5091142;28;20259;-89
2021/12/21 00:56:01;;;;;;;14.63;7.10;;;;;;;;;;5085695;28;20210;-89
2021/12/21 00:58:29;;;;;;;14.83;6.97;;;;;;;;;;5093487;28;20204;-89
2021/12/21 01:00:57;;;;;;;13.47;6.50;;;;;;;;;;5093669;28;20208;-89
2021/12/21 01:03:24;;;;;;;12.10;5.83;;;;;;;;;;5092131;28;20285;-89
2021/12/21 01:05:57;;;;;;;15.23;5.97;;;;;;;;;;5093075;28;20204;-89
2021/12/21 01:08:28;;;;;;;9.43;5.73;;;;;;;;;;5093525;28;20224;-89
2021/12/21 01:11:11;;;;;;;9.70;6.03;;;;;;;;;;5093671;28;20918;-89
2021/12/21 01:13:51;;;;;;;8.40;5.70;;;;;;;;;;5084619;28;20271;-89
2021/12/21 01:16:26;;;;;;;9.87;5.57;;;;;;;;;;5085401;28;20545;-89
2021/12/21 01:19:03;;;;;;;9.43;5.47;;;;;;;;;;5093241;28;20252;-89
2021/12/21 01:21:35;;;;;;;8.90;5.27;;;;;;;;;;5090911;28;20228;-89
2021/12/21 01:29:42;;;;;;;6.93;4.80;;;;;;;;;;5064345;28;20209;-88
2021/12/21 01:32:16;;;;;;;8.10;4.80;;;;;;;;;;5087827;28;20315;-89
2021/12/21 01:34:54;;;;;;;9.67;5.00;;;;;;;;;;5093032;28;20582;-89
2021/12/21 01:37:27;;;;;;;9.40;4.83;;;;;;;;;;5093207;28;20199;-89
2021/12/21 01:40:17;;;;;;;9.83;5.87;;;;;;;;;;5082605;28;20213;-89
2021/12/21 01:43:08;;;;;;;8.83;5.07;;;;;;;;;;5092343;28;20563;-89
2021/12/21 01:51:06;;;;;;;7.00;4.67;;;;;;;;;;5092196;28;20232;-89
2021/12/21 01:53:33;;;;;;;6.90;4.77;;;;;;;;;;5092609;28;20221;-89
2021/12/21 01:56:01;;;;;;;8.63;5.40;;;;;;;;;;5090187;28;20295;-88
2021/12/21 01:58:30;;;;;;;11.23;5.90;;;;;;;;;;5088851;28;20608;-88
2021/12/21 02:00:57;;;;;;;11.60;5.03;;;;;;;;;;5086095;28;20243;-89
2021/12/21 02:03:25;;;;;;;11.67;5.83;;;;;;;;;;5086515;28;20204;-89
2021/12/21 02:05:52;;;;;;;7.20;4.80;;;;;;;;;;5092262;28;20204;-89
2021/12/21 02:08:19;;;;;;;7.63;4.40;;;;;;;;;;5092221;28;20224;-89
2021/12/21 02:10:47;;;;;;;8.93;5.13;;;;;;;;;;5086079;28;20716;-89
2021/12/21 02:13:14;;;;;;;8.63;5.30;;;;;;;;;;5083261;28;20208;-89
2021/12/21 02:15:43;;;;;;;6.47;4.70;;;;;;;;;;5092397;28;20604;-89
2021/12/21 02:18:33;;;;;;;10.67;4.97;;;;;;;;;;5092547;28;20212;-89
2021/12/21 02:21:13;;;;;;;9.07;5.23;;;;;;;;;;5081856;28;20270;-89
2021/12/21 02:23:42;;;;;;;7.63;5.10;;;;;;;;;;5088131;28;20209;-89
2021/12/21 02:26:34;;;;;;;6.73;5.00;;;;;;;;;;5092338;28;20618;-89
2021/12/21 02:29:17;;;;;;;6.67;5.20;;;;;;;;;;5072730;28;20220;-89
2021/12/21 02:31:46;;;;;;;7.33;4.40;;;;;;;;;;5087033;28;20246;-89
2021/12/21 02:34:13;;;;;;;8.73;4.83;;;;;;;;;;5084068;28;20575;-88
2021/12/21 02:36:42;;;;;;;8.60;4.57;;;;;;;;;;5089964;28;20727;-88
2021/12/21 02:39:10;;;;;;;7.43;4.90;;;;;;;;;;5087545;28;20193;-88
2021/12/21 02:41:38;;;;;;;9.83;4.53;;;;;;;;;;5092045;28;20277;-88
2021/12/21 02:44:06;;;;;;;7.53;4.63;;;;;;;;;;5092224;28;20201;-89
2021/12/21 02:46:33;;;;;;;8.57;4.60;;;;;;;;;;5082359;28;20234;-88
2021/12/21 02:49:00;;;;;;;8.77;4.77;;;;;;;;;;5091678;28;20224;-89
2021/12/21 02:51:28;;;;;;;8.37;3.90;;;;;;;;;;5092054;28;20586;-88
2021/12/21 02:53:56;;;;;;;6.13;4.63;;;;;;;;;;5092495;28;20215;-88
2021/12/21 02:56:24;;;;;;;8.90;4.50;;;;;;;;;;5083202;28;20217;-88
2021/12/21 02:58:51;;;;;;;8.97;4.27;;;;;;;;;;5092574;28;20352;-88
2021/12/21 03:01:18;;;;;;;4.53;3.70;;;;;;;;;;5096187;28;20232;-89
2021/12/21 03:03:46;;;;;;;7.30;4.33;;;;;;;;;;5086356;28;20219;-89
2021/12/21 03:06:35;;;;;;;6.80;3.93;;;;;;;;;;5094825;28;20204;-88
2021/12/21 03:09:12;;;;;;;8.50;4.27;;;;;;;;;;5095153;28;20235;-88
2021/12/21 03:11:50;;;;;;;7.77;4.57;;;;;;;;;;5089387;28;20308;-88
2021/12/21 03:14:18;;;;;;;8.93;4.07;;;;;;;;;;5089536;28;20721;-88
2021/12/21 03:16:45;;;;;;;8.47;4.33;;;;;;;;;;5082750;28;20295;-88
2021/12/21 03:19:12;;;;;;;6.83;4.37;;;;;;;;;;5086749;28;20258;-88
2021/12/21 03:21:40;;;;;;;8.93;4.27;;;;;;;;;;5095473;28;20224;-88
2021/12/21 03:24:09;;;;;;;7.97;4.10;;;;;;;;;;5095263;28;20196;-88
2021/12/21 03:26:36;;;;;;;6.13;3.53;;;;;;;;;;5093071;28;20212;-88
2021/12/21 03:29:04;;;;;;;6.23;3.23;;;;;;;;;;5094025;28;20634;-88
2021/12/21 03:31:32;;;;;;;6.87;3.33;;;;;;;;;;5095111;28;20228;-88
2021/12/21 03:33:59;;;;;;;5.20;3.80;;;;;;;;;;5095118;28;20196;-88
2021/12/21 03:36:26;;;;;;;7.03;3.73;;;;;;;;;;5089141;28;20833;-88
2021/12/21 03:38:58;;;;;;;5.50;3.80;;;;;;;;;;5087934;28;20204;-88
2021/12/21 03:41:27;;;;;;;8.43;4.00;;;;;;;;;;5094670;28;20224;-88
2021/12/21 03:43:55;;;;;;;7.70;3.87;;;;;;;;;;5095034;28;20274;-88
2021/12/21 03:46:24;;;;;;;7.57;3.70;;;;;;;;;;5086382;28;20207;-89
2021/12/21 03:48:51;;;;;;;5.47;3.40;;;;;;;;;;5080803;28;20257;-88
2021/12/21 03:51:20;;;;;;;6.27;3.57;;;;;;;;;;5094552;28;20274;-88
2021/12/21 03:53:47;;;;;;;5.30;3.57;;;;;;;;;;5091963;28;20212;-88
2021/12/21 03:56:37;;;;;;;4.70;3.20;;;;;;;;;;5084986;28;20228;-88
2021/12/21 03:59:06;;;;;;;5.63;4.07;;;;;;;;;;5094158;28;20229;-88
2021/12/21 04:01:33;;;;;;;3.27;2.97;;;;;;;;;;5092064;28;20229;-88
2021/12/21 04:04:01;;;;;;;7.33;3.10;;;;;;;;;;5085920;28;20201;-88
2021/12/21 04:06:28;;;;;;;3.87;2.80;;;;;;;;;;5094150;28;20265;-88
2021/12/21 04:08:55;;;;;;;5.20;3.43;;;;;;;;;;5094714;28;20236;-88
2021/12/21 04:11:22;;;;;;;4.20;2.83;;;;;;;;;;5081144;28;20749;-88
2021/12/21 04:13:50;;;;;;;6.37;3.37;;;;;;;;;;5090668;28;20262;-88
2021/12/21 04:16:18;;;;;;;3.83;2.97;;;;;;;;;;5093877;28;20199;-88
2021/12/21 04:18:45;;;;;;;3.87;2.97;;;;;;;;;;5085083;28;20745;-88
2021/12/21 04:21:13;;;;;;;4.37;2.83;;;;;;;;;;5089669;28;20220;-88
2021/12/21 04:23:40;;;;;;;4.50;2.97;;;;;;;;;;5094340;28;20291;-88
2021/12/21 04:26:08;;;;;;;4.33;2.97;;;;;;;;;;5085331;28;20196;-88
2021/12/21 04:28:35;;;;;;;6.13;3.67;;;;;;;;;;5081591;28;20251;-88
2021/12/21 04:31:02;;;;;;;5.37;3.43;;;;;;;;;;5093625;28;20224;-88
2021/12/21 04:33:31;;;;;;;6.23;3.80;;;;;;;;;;5094246;28;20201;-88
2021/12/21 04:35:59;;;;;;;5.90;4.13;;;;;;;;;;5088614;28;20200;-88
2021/12/21 04:38:31;;;;;;;6.67;3.87;;;;;;;;;;5093766;28;20269;-88
2021/12/21 04:41:04;;;;;;;6.63;3.50;;;;;;;;;;5093624;28;20185;-87
2021/12/21 04:43:31;;;;;;;4.63;3.37;;;;;;;;;;5091803;28;20232;-87
2021/12/21 04:45:58;;;;;;;5.87;3.30;;;;;;;;;;5086216;28;20205;-88
2021/12/21 04:48:26;;;;;;;5.67;3.03;;;;;;;;;;5093533;28;20220;-88
2021/12/21 04:50:55;;;;;;;4.40;2.43;;;;;;;;;;5093975;28;20208;-88
2021/12/21 04:53:22;;;;;;;4.23;3.00;;;;;;;;;;5085009;28;20212;-88
2021/12/21 04:55:49;;;;;;;5.80;3.67;;;;;;;;;;5089703;28;20192;-88
2021/12/21 04:58:17;;;;;;;8.70;3.83;;;;;;;;;;5092980;28;20201;-88
2021/12/21 05:00:44;;;;;;;3.33;3.03;;;;;;;;;;5087037;28;20303;-88
2021/12/21 05:03:18;;;;;;;7.70;3.50;;;;;;;;;;5092927;28;20204;-88
2021/12/21 05:05:46;;;;;;;6.67;3.63;;;;;;;;;;5093107;28;20218;-88
2021/12/21 05:08:21;;;;;;;5.43;3.17;;;;;;;;;;5089751;28;20213;-88
2021/12/21 05:10:51;;;;;;;6.80;3.10;;;;;;;;;;5078752;28;20197;-88
2021/12/21 05:13:20;;;;;;;3.83;2.80;;;;;;;;;;5093000;28;20564;-88
2021/12/21 05:15:47;;;;;;;5.40;3.43;;;;;;;;;;5091437;28;20205;-87
2021/12/21 05:18:16;;;;;;;5.40;3.70;;;;;;;;;;5076374;28;20200;-88
2021/12/21 05:20:44;;;;;;;6.67;3.50;;;;;;;;;;5092837;28;20688;-88
2021/12/21 05:23:11;;;;;;;7.53;3.83;;;;;;;;;;5092724;28;20239;-88
2021/12/21 05:25:41;;;;;;;5.27;3.27;;;;;;;;;;5090412;28;20208;-87
2021/12/21 05:28:09;;;;;;;7.63;3.33;;;;;;;;;;5086396;28;20254;-88
2021/12/21 05:30:36;;;;;;;3.90;2.73;;;;;;;;;;5092605;28;20732;-87
2021/12/21 05:33:04;;;;;;;6.03;3.07;;;;;;;;;;5090934;28;20224;-87
2021/12/21 05:35:32;;;;;;;4.23;3.27;;;;;;;;;;5084702;28;20267;-87
2021/12/21 05:38:02;;;;;;;4.57;2.90;;;;;;;;;;5092236;28;20249;-87
2021/12/21 05:40:34;;;;;;;4.30;3.00;;;;;;;;;;5093159;28;20625;-88
2021/12/21 05:43:03;;;;;;;4.60;3.07;;;;;;;;;;5079724;28;20235;-87
2021/12/21 05:45:30;;;;;;;5.33;3.00;;;;;;;;;;5086838;28;20204;-87
2021/12/21 05:47:57;;;;;;;6.10;3.50;;;;;;;;;;5092587;28;20230;-88
2021/12/21 05:50:25;;;;;;;2.43;2.23;;;;;;;;;;5091390;28;20221;-87
2021/12/21 05:52:52;;;;;;;3.97;2.60;;;;;;;;;;5085454;28;20710;-87
2021/12/21 05:55:25;;;;;;;3.37;3.03;;;;;;;;;;5078253;28;20205;-87
2021/12/21 05:57:59;;;;;;;7.00;3.90;;;;;;;;;;5081932;28;20197;-87
2021/12/21 06:00:28;;;;;;;8.23;3.50;;;;;;;;;;5092738;28;20197;-88
2021/12/21 06:02:56;;;;;;;6.07;3.10;;;;;;;;;;5092537;28;20289;-88
2021/12/21 06:05:23;;;;;;;7.67;3.20;;;;;;;;;;5082290;28;20212;-88
2021/12/21 06:07:52;;;;;;;6.67;3.83;;;;;;;;;;5090804;28;20219;-87
2021/12/21 06:10:25;;;;;;;4.53;3.00;;;;;;;;;;5091820;28;20217;-87
2021/12/21 06:13:19;;;;;;;4.37;2.90;;;;;;;;;;5090443;28;20228;-87
2021/12/21 06:16:07;;;;;;;4.10;2.87;;;;;;;;;;5080313;28;20289;-87
2021/12/21 06:27:02;;;;;;;9.07;3.83;;;;;;;;;;5109610;27;20580;-87
2021/12/21 06:29:29;;;;;;;7.07;4.43;;;;;;;;;;5110530;28;20215;-87
2021/12/21 06:31:56;;;;;;;7.67;3.63;;;;;;;;;;5092110;28;20221;-87
2021/12/21 06:34:24;;;;;;;4.57;4.03;;;;;;;;;;5075854;28;20236;-87
2021/12/21 06:36:51;;;;;;;7.27;3.77;;;;;;;;;;5089107;28;20291;-87
2021/12/21 06:39:18;;;;;;;7.10;3.93;;;;;;;;;;5090041;28;20654;-87
2021/12/21 06:41:46;;;;;;;10.90;4.90;;;;;;;;;;5087737;28;20312;-85
2021/12/21 06:44:16;;;;;;;8.10;5.00;;;;;;;;;;5091217;28;20213;-87
2021/12/21 06:46:53;;;;;;;7.87;4.73;;;;;;;;;;5089485;28;20228;-87
2021/12/21 06:52:05;;;;;;;8.13;4.90;;;;;;;;;;5080524;28;20971;-87
2021/12/21 06:54:32;;;;;;;9.67;5.03;;;;;;;;;;5089120;28;20280;-87
2021/12/21 06:56:59;;;;;;;8.20;3.83;;;;;;;;;;5088902;28;20192;-86
2021/12/21 06:59:28;;;;;;;8.83;5.00;;;;;;;;;;5082862;28;20202;-87
2021/12/21 07:01:58;;;;;;;6.93;4.37;;;;;;;;;;5089789;28;20294;-87
2021/12/21 07:04:25;;;;;;;6.27;3.90;;;;;;;;;;5091850;28;20199;-87
2021/12/21 07:06:54;;;;;;;10.27;3.83;;;;;;;;;;5088637;28;20282;-88
2021/12/21 07:09:29;;;;;;;8.73;4.53;;;;;;;;;;5084253;28;20227;-87
2021/12/21 07:12:13;;;;;;;6.53;4.37;;;;;;;;;;5084110;28;20238;-87
2021/12/21 07:20:12;;;;;;;9.87;4.60;;;;;;;;;;5086885;28;20192;-87
2021/12/21 07:22:39;;;;;;;6.60;3.60;;;;;;;;;;5088916;28;20248;-87
2021/12/21 07:25:06;;;;;;;10.87;5.10;;;;;;;;;;5080463;28;20256;-87
2021/12/21 07:27:36;;;;;;;12.03;5.90;;;;;;;;;;5079985;28;20197;-87
2021/12/21 07:30:06;;;;;;;7.10;5.00;;;;;;;;;;5081455;28;20205;-87
2021/12/21 07:33:02;;;;;;;8.97;5.53;;;;;;;;;;5088070;28;20209;-87
2021/12/21 07:35:29;;;;;;;6.37;4.57;;;;;;;;;;5088516;28;20231;-88
2021/12/21 07:37:57;;;;;;;5.83;4.20;;;;;;;;;;5070424;28;20201;-87
2021/12/21 07:40:24;;;;;;;10.00;4.57;;;;;;;;;;5073882;28;20209;-87
2021/12/21 07:42:58;;;;;;;9.53;4.83;;;;;;;;;;5074961;28;20222;-87
2021/12/21 07:45:26;;;;;;;6.80;4.37;;;;;;;;;;5069765;28;20228;-87
2021/12/21 07:47:54;;;;;;;6.37;4.37;;;;;;;;;;5071541;28;20846;-87
2021/12/21 07:50:21;;;;;;;5.20;4.27;;;;;;;;;;5074758;28;20201;-87
2021/12/21 07:52:50;;;;;;;5.73;4.10;;;;;;;;;;5074433;28;20271;-88
2021/12/21 07:55:17;;;;;;;5.57;4.07;;;;;;;;;;5066444;28;20201;-87
2021/12/21 07:57:45;;;;;;;7.20;4.90;;;;;;;;;;5070264;28;20225;-88
2021/12/21 08:00:20;;;;;;;6.90;4.33;;;;;;;;;;5072305;28;20639;-88
2021/12/21 08:02:49;;;;;;;7.00;4.80;;;;;;;;;;5069672;28;20290;-88
2021/12/21 08:05:17;;;;;;;12.47;5.83;;;;;;;;;;5069847;28;20646;-87
2021/12/21 08:07:50;;;;;;;9.93;5.47;;;;;;;;;;5074734;28;20255;-87
2021/12/21 08:10:22;;;;;;;8.67;4.93;;;;;;;;;;5095043;28;20184;-88
2021/12/21 08:12:50;;;;;;;8.00;5.00;;;;;;;;;;5075232;28;20869;-87
2021/12/21 08:15:17;;;;;;;8.53;4.90;;;;;;;;;;5073336;28;20679;-88
2021/12/21 08:17:45;;;;;;;5.73;4.60;;;;;;;;;;5074106;28;20193;-88
2021/12/21 08:20:15;;;;;;;10.23;5.87;;;;;;;;;;5070103;28;20205;-87
2021/12/21 08:22:42;;;;;;;6.87;5.13;;;;;;;;;;5064506;28;20214;-88
2021/12/21 08:25:10;;;;;;;7.73;5.67;;;;;;;;;;5068187;28;20611;-88
2021/12/21 08:27:37;;;;;;;8.53;5.17;;;;;;;;;;5062604;28;20186;-88
2021/12/21 08:30:06;;;;;;;11.07;6.13;;;;;;;;;;5067665;28;20209;-88
2021/12/21 08:32:33;;;;;;;11.70;6.10;;;;;;;;;;5068598;28;20256;-88
2021/12/21 08:35:00;;;;;;;9.77;6.17;;;;;;;;;;5073846;28;20237;-89
2021/12/21 08:37:30;;;;;;;11.40;6.07;;;;;;;;;;5073067;28;20198;-88
2021/12/21 08:39:57;;;;;;;14.87;6.90;;;;;;;;;;5066815;28;20205;-88
2021/12/21 08:42:33;;;;;;;10.47;5.77;;;;;;;;;;5072714;28;20225;-88
2021/12/21 08:45:06;;;;;;;11.90;6.20;;;;;;;;;;5073735;28;20647;-89
2021/12/21 08:47:33;;;;;;;8.77;5.27;;;;;;;;;;5066339;28;20217;-89
2021/12/21 08:50:00;;;;;;;10.90;5.97;;;;;;;;;;5070461;28;20206;-88
2021/12/21 08:52:47;;;;;;;11.23;6.43;;;;;;;;;;5073252;28;20213;-88
2021/12/21 08:55:27;;;;;;;13.40;6.83;;;;;;;;;;5063301;28;20666;-89
2021/12/21 08:58:01;;;;;;;10.77;6.50;;;;;;;;;;5071129;28;20205;-89
2021/12/21 09:00:29;;;;;;;9.80;6.43;;;;;;;;;;5065560;28;20205;-89
2021/12/21 09:02:56;;;;;;;8.67;6.00;;;;;;;;;;5070781;28;20226;-89
2021/12/21 09:05:27;;;;;;;8.50;6.17;;;;;;;;;;5073385;28;20200;-89
2021/12/21 09:07:55;;;;;;;9.50;6.17;;;;;;;;;;5069757;28;20214;-88
2021/12/21 09:10:23;;;;;;;10.73;6.70;;;;;;;;;;5070360;28;20209;-88
2021/12/21 09:12:51;;;;;;;8.20;5.97;;;;;;;;;;5072604;28;20222;-89
2021/12/21 09:15:20;;;;;;;12.00;6.83;;;;;;;;;;5073132;28;20225;-89
2021/12/21 09:17:48;;;;;;;9.43;6.20;;;;;;;;;;5067405;28;20228;-89
2021/12/21 09:20:18;;;;;;;13.37;6.73;;;;;;;;;;5072583;28;20613;-89
2021/12/21 09:22:46;;;;;;;10.40;6.63;;;;;;;;;;5072641;28;20217;-88
2021/12/21 09:25:15;;;;;;;10.63;6.83;;;;;;;;;;5072593;28;20297;-88
2021/12/21 09:27:42;;;;;;;13.70;6.67;;;;;;;;;;5070047;28;20224;-88
2021/12/21 09:30:11;;;;;;;9.73;6.03;;;;;;;;;;5072673;28;20588;-88
2021/12/21 09:32:39;;;;;;;11.30;6.47;;;;;;;;;;5072827;28;20759;-88
2021/12/21 09:35:07;;;;;;;11.43;6.53;;;;;;;;;;5067845;28;20198;-89
2021/12/21 09:37:34;;;;;;;8.87;5.93;;;;;;;;;;5070123;28;20279;-89
2021/12/21 09:40:02;;;;;;;12.37;6.60;;;;;;;;;;5072138;28;20221;-89
2021/12/21 09:42:32;;;;;;;10.03;6.47;;;;;;;;;;5072434;28;20271;-89
2021/12/21 09:48:09;;;;;;;7.80;5.00;;;;;;;;;;5071049;28;20262;-89
2021/12/21 09:50:36;;;;;;;9.13;5.63;;;;;;;;;;5072556;28;20706;-89
2021/12/21 09:53:04;;;;;;;8.77;5.50;;;;;;;;;;5072694;28;20213;-88
2021/12/21 09:55:31;;;;;;;10.23;6.53;;;;;;;;;;5067769;28;20205;-89
2021/12/21 09:58:00;;;;;;;11.17;6.17;;;;;;;;;;5071586;28;20197;-89
2021/12/21 10:00:29;;;;;;;13.60;5.70;;;;;;;;;;5071935;28;20201;-89
2021/12/21 10:03:02;;;;;;;7.67;4.40;;;;;;;;;;5069011;28;20229;-89
2021/12/21 10:05:30;;;;;;;10.63;5.60;;;;;;;;;;5067246;28;20231;-89
2021/12/21 10:07:58;;;;;;;8.10;5.90;;;;;;;;;;5071876;28;20228;-89
2021/12/21 10:10:25;;;;;;;10.10;5.70;;;;;;;;;;5069680;28;20550;-89
2021/12/21 10:12:52;;;;;;;11.93;5.10;;;;;;;;;;5067646;28;20958;-89
2021/12/21 10:15:23;;;;;;;9.67;5.37;;;;;;;;;;5071936;28;20219;-89
2021/12/21 10:17:51;;;;;;;8.03;4.80;;;;;;;;;;5071825;28;20189;-89
2021/12/21 10:20:31;;;;;;;10.43;5.03;;;;;;;;;;5068809;28;20711;-89
2021/12/21 10:22:58;;;;;;;10.33;5.90;;;;;;;;;;5069303;28;20248;-89
2021/12/21 10:25:25;;;;;;;9.47;5.20;;;;;;;;;;5071627;28;20209;-89
2021/12/21 10:27:52;;;;;;;8.40;6.00;;;;;;;;;;5071640;28;20275;-88
2021/12/21 10:30:20;;;;;;;5.93;4.47;;;;;;;;;;5065468;28;20264;-89
2021/12/21 10:32:53;;;;;;;8.33;4.60;;;;;;;;;;5066576;28;20232;-90
2021/12/21 10:35:21;;;;;;;8.47;4.43;;;;;;;;;;5071829;28;20214;-89
2021/12/21 10:37:51;;;;;;;12.47;4.80;;;;;;;;;;5071221;28;20210;-90
2021/12/21 10:40:23;;;;;;;8.13;5.17;;;;;;;;;;5064969;28;20281;-90
2021/12/21 10:42:52;;;;;;;6.67;5.07;;;;;;;;;;5068438;28;20225;-90
2021/12/21 10:45:21;;;;;;;6.20;3.63;;;;;;;;;;5071379;28;20276;-90
2021/12/21 10:47:49;;;;;;;4.63;3.40;;;;;;;;;;5062354;28;20271;-90
2021/12/21 10:50:18;;;;;;;4.07;3.00;;;;;;;;;;5069835;28;20201;-89
2021/12/21 10:52:49;;;;;;;5.50;3.20;;;;;;;;;;5071675;28;20270;-89
2021/12/21 10:55:16;;;;;;;6.27;3.33;;;;;;;;;;5071065;28;20201;-90
2021/12/21 10:57:45;;;;;;;6.10;3.37;;;;;;;;;;5071312;28;20205;-91
2021/12/21 11:00:16;;;;;;;4.20;3.10;;;;;;;;;;5063438;28;20198;-89
2021/12/21 11:02:44;;;;;;;6.47;3.17;;;;;;;;;;5072386;28;20256;-89
2021/12/21 11:05:13;;;;;;;7.20;3.50;;;;;;;;;;5067954;28;20213;-91
2021/12/21 11:07:46;;;;;;;4.10;2.90;;;;;;;;;;5067100;28;20209;-90
2021/12/21 11:10:16;;;;;;;5.70;3.10;;;;;;;;;;5064099;28;20293;-90
2021/12/21 11:12:45;;;;;;;5.37;3.03;;;;;;;;;;5069369;28;20297;-91
2021/12/21 11:15:13;;;;;;;3.77;3.00;;;;;;;;;;5062529;28;20206;-90
2021/12/21 11:17:41;;;;;;;6.57;2.70;;;;;;;;;;5063112;28;20201;-89
2021/12/21 11:20:09;;;;;;;3.67;2.30;;;;;;;;;;5075397;28;20232;-89
2021/12/21 11:22:47;;;;;;;3.67;2.40;;;;;;;;;;5075283;28;20282;-90
2021/12/21 11:25:15;;;;;;;4.10;2.70;;;;;;;;;;5073659;28;20213;-89
2021/12/21 11:27:44;;;;;;;3.63;2.83;;;;;;;;;;5074674;28;20398;-89
2021/12/21 11:30:13;;;;;;;4.03;2.73;;;;;;;;;;5075374;28;20434;-89
2021/12/21 11:32:43;;;;;;;5.63;2.20;;;;;;;;;;5066805;28;20225;-89
2021/12/21 11:37:58;;;;;;;2.87;2.27;;;;;;;;;;5072578;28;20331;-89
2021/12/21 11:40:26;;;;;;;3.07;2.33;;;;;;;;;;5070728;28;20214;-89
2021/12/21 11:42:57;;;;;;;3.53;2.50;;;;;;;;;;5066413;28;20306;-89
2021/12/21 11:45:27;;;;;;;5.13;2.70;;;;;;;;;;5075145;28;20209;-89
2021/12/21 11:47:57;;;;;;;4.07;2.53;;;;;;;;;;5074727;28;20280;-90
2021/12/21 11:50:25;;;;;;;4.80;3.17;;;;;;;;;;5073340;28;20206;-90
2021/12/21 11:52:53;;;;;;;21.70;10.07;;;;;;;;;;5072814;28;20228;-90
2021/12/21 11:55:23;;;;;;;6.73;3.30;;;;;;;;;;5074763;28;20700;-90
2021/12/21 11:57:51;;;;;;;6.57;2.83;;;;;;;;;;5074806;28;20274;-90
2021/12/21 12:00:24;;;;;;;5.57;2.83;;;;;;;;;;5069088;28;20274;-90
2021/12/21 12:02:52;;;;;;;12.10;3.20;;;;;;;;;;5071287;28;20221;-90
2021/12/21 12:05:21;;;;;;;4.77;2.97;;;;;;;;;;5074791;28;20205;-90
2021/12/21 12:07:59;;;;;;;4.17;2.77;;;;;;;;;;5072016;28;20217;-90
2021/12/21 12:10:28;;;;;;;5.57;2.60;;;;;;;;;;5071728;28;21078;-90
2021/12/21 12:12:56;;;;;;;6.13;3.37;;;;;;;;;;5074335;28;20221;-89
2021/12/21 12:15:23;;;;;;;4.33;2.63;;;;;;;;;;5074747;28;20208;-90
2021/12/21 12:17:51;;;;;;;6.70;2.77;;;;;;;;;;5072424;28;20220;-90
2021/12/21 12:20:19;;;;;;;4.57;2.87;;;;;;;;;;5069944;28;20259;-90
2021/12/21 12:22:48;;;;;;;3.07;2.40;;;;;;;;;;5080428;28;20255;-90
2021/12/21 12:25:21;;;;;;;2.27;2.07;;;;;;;;;;5072738;28;20204;-91
2021/12/21 12:27:51;;;;;;;2.47;2.13;;;;;;;;;;5061490;28;20295;-90
2021/12/21 12:30:20;;;;;;;2.97;1.90;;;;;;;;;;5073915;28;20201;-90
2021/12/21 12:32:49;;;;;;;3.83;2.00;;;;;;;;;;5074063;28;20232;-90
2021/12/21 12:35:18;;;;;;;5.47;2.30;;;;;;;;;;5070386;28;20221;-90
2021/12/21 12:37:49;;;;;;;3.63;1.83;;;;;;;;;;5069707;28;20723;-90
2021/12/21 12:40:18;;;;;;;2.90;1.63;;;;;;;;;;5075047;28;20201;-90
2021/12/21 12:42:54;;;;;;;1.87;1.77;;;;;;;;;;5065494;28;20305;-90
2021/12/21 12:45:23;;;;;;;4.43;1.93;;;;;;;;;;5059767;28;20251;-90
2021/12/21 12:47:53;;;;;;;1.70;1.60;;;;;;;;;;5070078;28;20682;-89
2021/12/21 12:50:21;;;;;;;3.37;2.33;;;;;;;;;;5074302;28;20254;-90
2021/12/21 12:52:53;;;;;;;3.90;2.00;;;;;;;;;;5073990;28;20221;-89
2021/12/21 12:55:21;;;;;;;4.83;2.10;;;;;;;;;;5068032;28;20205;-90
2021/12/21 12:57:53;;;;;;;2.87;2.10;;;;;;;;;;5066971;28;20602;-90
2021/12/21 13:00:22;;;;;;;4.07;1.80;;;;;;;;;;5073779;28;20205;-90
2021/12/21 13:03:01;;;;;;;3.70;2.10;;;;;;;;;;5071132;28;20221;-90
2021/12/21 13:05:34;;;;;;;2.97;2.00;;;;;;;;;;5073172;28;20201;-90
2021/12/21 13:08:08;;;;;;;5.77;2.20;;;;;;;;;;5073175;28;20251;-90
2021/12/21 13:10:36;;;;;;;3.17;2.40;;;;;;;;;;5071910;28;20265;-89
2021/12/21 13:13:04;;;;;;;2.57;2.13;;;;;;;;;;5070691;28;20682;-90
2021/12/21 13:15:35;;;;;;;3.33;2.50;;;;;;;;;;5072815;28;20247;-87
2021/12/21 13:18:04;;;;;;;2.60;1.83;;;;;;;;;;5073355;28;20646;-87
2021/12/21 13:20:32;;;;;;;1.83;1.73;;;;;;;;;;5068189;28;20198;-87
2021/12/21 13:23:09;;;;;;;3.23;2.30;;;;;;;;;;5071350;28;20647;-88
2021/12/21 13:25:37;;;;;;;3.57;2.20;;;;;;;;;;5072810;28;20224;-87
2021/12/21 13:28:09;;;;;;;2.20;1.80;;;;;;;;;;5066933;28;20654;-87
2021/12/21 13:30:36;;;;;;;2.07;1.87;;;;;;;;;;5066745;28;20233;-87
2021/12/21 13:33:06;;;;;;;4.93;2.50;;;;;;;;;;5072582;28;20224;-87
2021/12/21 13:35:33;;;;;;;2.13;1.77;;;;;;;;;;5070462;28;20202;-87
2021/12/21 13:38:01;;;;;;;3.07;2.17;;;;;;;;;;5064178;28;20255;-87
2021/12/21 13:40:30;;;;;;;7.27;2.20;;;;;;;;;;5072511;28;20262;-87
2021/12/21 13:42:58;;;;;;;4.60;2.17;;;;;;;;;;5068237;28;20229;-90
2021/12/21 13:45:25;;;;;;;5.10;2.00;;;;;;;;;;5064773;28;20228;-90
2021/12/21 13:47:52;;;;;;;2.77;2.10;;;;;;;;;;5069595;28;20236;-89
2021/12/21 13:50:25;;;;;;;2.47;2.13;;;;;;;;;;5067277;28;20233;-89
2021/12/21 13:52:55;;;;;;;3.40;2.00;;;;;;;;;;5070935;28;20231;-87
2021/12/21 13:55:30;;;;;;;1.83;1.63;;;;;;;;;;5072574;28;20213;-86
2021/12/21 13:57:59;;;;;;;3.67;2.50;;;;;;;;;;5068592;28;20231;-87
2021/12/21 14:00:29;;;;;;;3.33;2.07;;;;;;;;;;5069814;28;20214;-87
2021/12/21 14:03:04;;;;;;;4.63;2.17;;;;;;;;;;5071869;28;20229;-87
2021/12/21 14:05:42;;;;;;;3.00;2.10;;;;;;;;;;5072226;28;20188;-87
2021/12/21 14:08:10;;;;;;;3.27;2.10;;;;;;;;;;5060519;28;20240;-88
2021/12/21 14:10:40;;;;;;;2.07;1.87;;;;;;;;;;5069234;28;20209;-87
2021/12/21 14:13:08;;;;;;;5.77;2.07;;;;;;;;;;5071992;28;20225;-87
2021/12/21 14:15:35;;;;;;;2.87;2.13;;;;;;;;;;5068689;28;20213;-86
2021/12/21 14:18:13;;;;;;;3.93;2.30;;;;;;;;;;5064358;28;20229;-87
2021/12/21 14:20:42;;;;;;;1.80;1.67;;;;;;;;;;5067517;28;20201;-87
2021/12/21 14:23:09;;;;;;;3.40;1.80;;;;;;;;;;5072058;28;20229;-87
2021/12/21 14:25:37;;;;;;;3.00;2.10;;;;;;;;;;5067685;28;20642;-87
2021/12/21 14:28:10;;;;;;;2.17;1.80;;;;;;;;;;5064989;28;20229;-87
2021/12/21 14:30:38;;;;;;;2.20;2.00;;;;;;;;;;5065532;28;20209;-87
2021/12/21 14:33:20;;;;;;;2.57;2.00;;;;;;;;;;5065356;28;20230;-87
2021/12/21 14:35:48;;;;;;;2.00;1.87;;;;;;;;;;5069589;28;20267;-88
2021/12/21 14:38:17;;;;;;;2.50;2.10;;;;;;;;;;5072351;28;20201;-87
2021/12/21 14:40:46;;;;;;;2.83;2.10;;;;;;;;;;5062838;28;20758;-88
2021/12/21 14:43:30;;;;;;;8.37;2.37;;;;;;;;;;5072009;28;20217;-87
2021/12/21 14:45:58;;;;;;;2.70;2.00;;;;;;;;;;5072023;28;20702;-90
2021/12/21 14:48:27;;;;;;;2.17;1.70;;;;;;;;;;5072865;28;20217;-87
2021/12/21 14:51:08;;;;;;;3.50;2.13;;;;;;;;;;5070875;28;20228;-87
2021/12/21 14:53:45;;;;;;;3.10;1.90;;;;;;;;;;5070771;28;20224;-87
2021/12/21 14:56:14;;;;;;;5.87;2.23;;;;;;;;;;5064136;28;20212;-87
2021/12/21 14:58:41;;;;;;;4.00;2.43;;;;;;;;;;5075607;28;20212;-86
2021/12/21 15:01:08;;;;;;;2.77;2.43;;;;;;;;;;5075604;28;20666;-87
2021/12/21 15:03:39;;;;;;;2.67;1.97;;;;;;;;;;5070231;28;20258;-88
2021/12/21 15:06:08;;;;;;;4.17;2.30;;;;;;;;;;5075058;28;20608;-89
2021/12/21 15:08:35;;;;;;;2.70;1.90;;;;;;;;;;5073245;28;20221;-90
2021/12/21 15:11:03;;;;;;;2.47;2.00;;;;;;;;;;5071939;28;20214;-90
2021/12/21 15:13:30;;;;;;;2.07;1.90;;;;;;;;;;5075242;28;20600;-90
2021/12/21 15:15:58;;;;;;;3.33;2.03;;;;;;;;;;5075467;28;20217;-91
2021/12/21 15:18:25;;;;;;;2.00;1.80;;;;;;;;;;5070525;28;20548;-90
2021/12/21 15:20:53;;;;;;;2.13;1.57;;;;;;;;;;5072685;28;20209;-90
2021/12/21 15:23:22;;;;;;;6.07;2.20;;;;;;;;;;5075066;28;20292;-91
2021/12/21 15:25:59;;;;;;;2.50;2.27;;;;;;;;;;5074999;28;20213;-88
2021/12/21 15:28:26;;;;;;;3.00;1.80;;;;;;;;;;5065083;28;20220;-89
2021/12/21 15:30:54;;;;;;;5.27;3.13;;;;;;;;;;5074509;28;20209;-88
2021/12/21 15:33:21;;;;;;;4.60;2.67;;;;;;;;;;5069445;28;20683;-88